createdAt,value
2023-01-27T00:03:23.662Z,-1.70
2023-01-27T00:08:31.340Z,-1.80
2023-01-27T00:13:38.159Z,-1.90
2023-01-27T00:18:45.158Z,-2.00
2023-01-27T00:24:09.361Z,-2.00
2023-01-27T00:29:16.324Z,-2.10
2023-01-27T00:34:23.512Z,-2.20
2023-01-27T00:39:30.616Z,-2.10
2023-01-27T00:44:38.017Z,-2.10
2023-01-27T00:49:45.295Z,-2.10
2023-01-27T00:54:52.138Z,-2.00
2023-01-27T00:59:59.947Z,-2.00
2023-01-27T01:05:07.056Z,-2.00
2023-01-27T01:10:14.176Z,-2.00
2023-01-27T01:15:21.786Z,-2.00
2023-01-27T01:20:28.539Z,-1.90
2023-01-27T01:25:36.360Z,-1.80
2023-01-27T01:30:43.204Z,-2.00
2023-01-27T01:35:50.341Z,-2.00
2023-01-27T01:40:57.392Z,-1.80
2023-01-27T01:46:06.788Z,-1.80
2023-01-27T01:51:35.907Z,-1.90
2023-01-27T01:56:58.474Z,-1.80
2023-01-27T02:02:08.711Z,-2.10
2023-01-27T02:07:27.490Z,-2.00
2023-01-27T02:12:34.566Z,-1.90
2023-01-27T02:17:41.741Z,-1.80
2023-01-27T02:23:18.461Z,-1.80
2023-01-27T02:28:30.387Z,-1.80
2023-01-27T02:33:37.107Z,-1.70
2023-01-27T02:38:48.283Z,-1.90
2023-01-27T02:43:54.953Z,-1.70
2023-01-27T02:49:01.652Z,-1.60
2023-01-27T02:54:08.752Z,-1.90
2023-01-27T02:59:15.439Z,-1.80
2023-01-27T03:04:22.167Z,-1.80
2023-01-27T03:09:28.850Z,-1.80
2023-01-27T03:14:53.454Z,-1.60
2023-01-27T03:20:00.876Z,-1.70
2023-01-27T03:25:08.335Z,-1.70
2023-01-27T03:30:15.165Z,-1.70
2023-01-27T03:35:23.573Z,-1.80
2023-01-27T03:40:48.328Z,-1.70
2023-01-27T03:46:12.607Z,-1.80
2023-01-27T03:51:21.277Z,-1.70
2023-01-27T03:56:28.026Z,-1.70
2023-01-27T04:01:34.790Z,-1.70
2023-01-27T04:06:54.656Z,-1.80
2023-01-27T04:12:04.670Z,-1.80
2023-01-27T04:17:17.373Z,-1.80
2023-01-27T04:22:23.885Z,-1.80
2023-01-27T04:27:30.623Z,-1.90
2023-01-27T04:32:37.419Z,-1.70
2023-01-27T04:37:44.189Z,-1.90
2023-01-27T04:42:51.172Z,-1.90
2023-01-27T04:47:57.841Z,-2.10
2023-01-27T04:53:04.456Z,-2.00
2023-01-27T04:58:12.563Z,-1.90
2023-01-27T05:03:19.686Z,-1.70
2023-01-27T05:08:26.329Z,-1.80
2023-01-27T05:13:33.593Z,-1.90
2023-01-27T05:18:41.604Z,-1.90
2023-01-27T05:23:48.357Z,-2.00
2023-01-27T05:28:58.613Z,-2.10
2023-01-27T05:34:05.493Z,-2.00
2023-01-27T05:39:13.596Z,-1.80
2023-01-27T05:44:20.216Z,-1.90
2023-01-27T05:49:27.030Z,-2.00
2023-01-27T05:54:33.675Z,-2.00
2023-01-27T05:59:40.418Z,-2.10
2023-01-27T06:04:47.200Z,-1.90
2023-01-27T06:09:54.080Z,-1.80
2023-01-27T06:15:03.048Z,-1.80
2023-01-27T06:20:10.796Z,-1.90
2023-01-27T06:25:17.610Z,-2.00
2023-01-27T06:30:24.718Z,-1.90
2023-01-27T06:35:31.911Z,-1.80
2023-01-27T06:40:38.623Z,-1.90
2023-01-27T06:45:45.323Z,-1.80
2023-01-27T06:50:52.020Z,-1.80
2023-01-27T06:56:02.940Z,-1.80
2023-01-27T07:01:09.707Z,-2.00
2023-01-27T07:06:18.711Z,-1.90
2023-01-27T07:11:25.713Z,-1.80
2023-01-27T07:16:32.413Z,-1.80
2023-01-27T07:21:39.132Z,-1.80
2023-01-27T07:26:47.383Z,-1.90
2023-01-27T07:31:54.143Z,-1.70
2023-01-27T07:37:00.791Z,-1.70
2023-01-27T07:42:08.189Z,-1.60
2023-01-27T07:47:14.920Z,-1.60
2023-01-27T07:52:21.590Z,-1.50
2023-01-27T07:57:28.341Z,-1.70
2023-01-27T08:02:34.968Z,-1.60
2023-01-27T08:07:41.711Z,-1.50
2023-01-27T08:12:48.846Z,-1.40
2023-01-27T08:17:59.877Z,-1.50
2023-01-27T08:23:06.571Z,-1.30
2023-01-27T08:28:13.268Z,-1.60
2023-01-27T08:33:23.480Z,-1.50
2023-01-27T08:38:30.399Z,-1.40
2023-01-27T08:43:37.497Z,-1.40
2023-01-27T08:48:44.572Z,-1.40
2023-01-27T08:53:51.321Z,-1.30
2023-01-27T08:58:58.040Z,-1.30
2023-01-27T09:04:04.719Z,-1.20
2023-01-27T09:09:12.365Z,-1.20
2023-01-27T09:14:20.399Z,-1.20
2023-01-27T09:19:27.200Z,-1.30
2023-01-27T09:24:33.966Z,-1.40
2023-01-27T09:29:40.729Z,-1.30
2023-01-27T09:34:47.418Z,-1.30
2023-01-27T09:39:58.515Z,-1.40
2023-01-27T09:45:47.364Z,-1.20
2023-01-27T09:51:16.059Z,-1.40
2023-01-27T09:56:38.984Z,-1.10
2023-01-27T10:02:04.914Z,-1.20
2023-01-27T10:07:28.152Z,-1.20
2023-01-27T10:12:47.824Z,-1.00
2023-01-27T10:18:07.617Z,-0.80
2023-01-27T10:23:27.051Z,-0.80
2023-01-27T10:28:35.634Z,-0.80
2023-01-27T10:33:58.722Z,-0.90
2023-01-27T10:39:17.915Z,-0.80
2023-01-27T10:44:46.965Z,-0.60
2023-01-27T10:50:01.589Z,-0.70
2023-01-27T10:55:36.812Z,-0.60
2023-01-27T11:06:02.620Z,-0.50
2023-01-27T11:11:28.752Z,-0.40
2023-01-27T11:16:41.668Z,-0.60
2023-01-27T11:21:58.179Z,-0.60
2023-01-27T11:27:00.978Z,-0.40
2023-01-27T11:32:29.890Z,-0.10
2023-01-27T11:37:45.970Z,0.20
2023-01-27T11:42:53.050Z,-0.20
2023-01-27T11:48:02.108Z,0.00
2023-01-27T11:53:32.554Z,-0.20
2023-01-27T11:59:04.482Z,-0.30
2023-01-27T12:04:24.318Z,0.00
2023-01-27T12:09:37.144Z,-0.10
2023-01-27T12:14:59.783Z,-0.10
2023-01-27T12:20:19.589Z,0.00
2023-01-27T12:25:36.280Z,0.10
2023-01-27T12:30:42.980Z,0.00
2023-01-27T12:35:52.145Z,0.00
2023-01-27T12:41:03.451Z,0.30
2023-01-27T12:46:17.591Z,0.00
2023-01-27T12:51:28.425Z,0.10
2023-01-27T12:56:36.790Z,0.10
2023-01-27T13:01:45.125Z,0.30
2023-01-27T13:06:58.128Z,0.10
2023-01-27T13:12:20.768Z,0.10
2023-01-27T13:17:41.057Z,0.00
2023-01-27T13:22:52.237Z,0.20
2023-01-27T13:28:01.510Z,0.30
2023-01-27T13:33:35.793Z,0.20
2023-01-27T13:38:55.103Z,0.30
2023-01-27T13:44:06.491Z,0.40
2023-01-27T13:49:37.271Z,0.50
2023-01-27T13:54:44.189Z,0.40
2023-01-27T14:00:07.168Z,0.40
2023-01-27T14:05:43.649Z,0.30
2023-01-27T14:11:24.838Z,0.30
2023-01-27T14:16:47.465Z,0.40
2023-01-27T14:22:16.644Z,0.30
2023-01-27T14:27:39.890Z,0.10
2023-01-27T14:33:15.403Z,0.10
2023-01-27T14:38:38.388Z,0.00
2023-01-27T14:43:58.860Z,0.10
2023-01-27T14:49:27.538Z,0.10
2023-01-27T14:55:26.872Z,0.00
2023-01-27T15:00:49.817Z,-0.20
2023-01-27T15:06:18.241Z,0.10
2023-01-27T15:12:05.291Z,0.10
2023-01-27T15:17:25.335Z,-0.10
2023-01-27T15:22:51.047Z,0.00
2023-01-27T15:27:57.950Z,-0.10
2023-01-27T15:33:05.348Z,-0.40
2023-01-27T15:38:25.100Z,-0.50
2023-01-27T15:43:33.280Z,-0.50
2023-01-27T15:48:41.297Z,-0.30
2023-01-27T15:53:57.664Z,-0.30
2023-01-27T15:59:06.818Z,-0.30
2023-01-27T16:04:20.898Z,-0.50
2023-01-27T16:09:43.056Z,-0.60
2023-01-27T16:14:49.759Z,-0.50
2023-01-27T16:20:25.497Z,-0.40
2023-01-27T16:25:42.454Z,-0.60
2023-01-27T16:31:14.444Z,-0.60
2023-01-27T16:36:38.202Z,-0.60
2023-01-27T16:41:49.446Z,-0.70
2023-01-27T16:47:14.969Z,-0.60
2023-01-27T16:52:40.390Z,-0.60
2023-01-27T16:57:40.965Z,-0.70
2023-01-27T17:02:46.985Z,-0.70
2023-01-27T17:08:13.371Z,-0.80
2023-01-27T17:13:32.949Z,-0.70
2023-01-27T17:18:51.808Z,-0.70
2023-01-27T17:23:47.671Z,-0.70
2023-01-27T17:28:53.459Z,-0.90
2023-01-27T17:34:01.556Z,-0.90
2023-01-27T17:39:10.018Z,-0.90
2023-01-27T17:44:16.890Z,-0.90
2023-01-27T17:49:22.337Z,-0.90
2023-01-27T17:54:37.050Z,-1.00
2023-01-27T17:59:48.354Z,-0.90
2023-01-27T18:04:55.317Z,-0.90
2023-01-27T18:10:02.088Z,-0.90
2023-01-27T18:15:36.688Z,-0.90
2023-01-27T18:20:42.595Z,-1.00
2023-01-27T18:25:52.864Z,-1.10
2023-01-27T18:30:58.577Z,-1.00
2023-01-27T18:36:04.643Z,-0.80
2023-01-27T18:41:15.928Z,-0.90
2023-01-27T18:46:22.040Z,-0.90
2023-01-27T18:51:27.791Z,-1.00
2023-01-27T18:56:33.419Z,-1.00
2023-01-27T19:01:39.159Z,-1.00
2023-01-27T19:06:44.765Z,-1.00
2023-01-27T19:11:50.918Z,-1.10
2023-01-27T19:16:56.577Z,-1.10
2023-01-27T19:22:02.498Z,-1.00
2023-01-27T19:27:09.994Z,-1.10
2023-01-27T19:32:16.884Z,-1.00
2023-01-27T19:37:23.454Z,-1.00
2023-01-27T19:42:29.051Z,-1.10
2023-01-27T19:47:34.687Z,-1.10
2023-01-27T19:52:40.343Z,-1.20
2023-01-27T19:57:46.337Z,-1.10
2023-01-27T20:02:52.209Z,-1.10
2023-01-27T20:07:58.743Z,-1.20
2023-01-27T20:13:06.457Z,-1.20
2023-01-27T20:18:16.720Z,-1.20
2023-01-27T20:23:22.099Z,-1.30
2023-01-27T20:28:28.660Z,-1.40
2023-01-27T20:33:34.502Z,-1.50
2023-01-27T20:38:40.748Z,-1.40
2023-01-27T20:43:46.334Z,-1.40
2023-01-27T20:48:51.954Z,-1.60
2023-01-27T20:53:59.188Z,-1.40
2023-01-27T20:59:04.579Z,-1.40
2023-01-27T21:04:10.162Z,-1.30
2023-01-27T21:09:15.774Z,-1.40
2023-01-27T21:14:21.232Z,-1.40
2023-01-27T21:19:26.855Z,-1.60
2023-01-27T21:24:32.730Z,-1.50
2023-01-27T21:29:38.169Z,-1.70
2023-01-27T21:34:43.780Z,-1.80
2023-01-27T21:39:49.803Z,-1.80
2023-01-27T21:45:15.685Z,-1.60
2023-01-27T21:50:22.339Z,-1.60
2023-01-27T21:55:31.372Z,-1.70
2023-01-27T22:00:36.763Z,-1.60
2023-01-27T22:05:42.401Z,-1.70
2023-01-27T22:10:47.788Z,-1.50
2023-01-27T22:15:53.544Z,-1.70
2023-01-27T22:21:03.179Z,-1.70
2023-01-27T22:26:09.540Z,-1.80
2023-01-27T22:31:14.944Z,-2.00
2023-01-27T22:36:21.066Z,-1.80
2023-01-27T22:41:26.645Z,-1.70
2023-01-27T22:46:32.020Z,-1.60
2023-01-27T22:51:37.787Z,-1.70
2023-01-27T22:56:43.498Z,-1.60
2023-01-27T23:01:49.049Z,-1.60
2023-01-27T23:06:54.653Z,-1.90
2023-01-27T23:12:00.274Z,-1.90
2023-01-27T23:17:06.284Z,-1.70
2023-01-27T23:22:12.098Z,-1.90
2023-01-27T23:27:17.677Z,-2.00
2023-01-27T23:32:23.148Z,-2.00
2023-01-27T23:37:28.621Z,-2.00
2023-01-27T23:42:34.807Z,-2.10
2023-01-27T23:47:40.401Z,-2.20
2023-01-27T23:52:46.007Z,-2.20
2023-01-27T23:57:51.607Z,-2.10
